Nearby METAR Reports

 

LIBV - Gioia Del Colle, Italy
Distance from station: PdPdWs 15km
Aktualizacja: 21/09/2019 19:55
Bezchmurnie
Bezchmurnie
 Wiatr z PnPnZd
Wiatr: PnPnZd 7 km/h
Temperatura: 17°C
Punkt Rosy: 11°C
Wilgotność: 68%
Ciśnienie: 1022 hPa
Podsumowanie: Bezchmurnie
Visibility: greater than 10 km
2019/09/21 17:55 LIBV 211755Z 03004KT CAVOK 17/11 Q1022 RMK SKC VIS MIN 9999 WIND THR32 03005KT WIND THR14 02004KT BLU
LIBD - Bari/Palese Macc, Italy
Distance from station: PnPnZd 26km
Aktualizacja: 21/09/2019 19:50
Bezchmurnie
Bezchmurnie
 Wiatr z varies
Wiatr: varies 2 km/h
Temperatura: 17°C
Punkt Rosy: 11°C
Wilgotność: 68%
Ciśnienie: 1022 hPa
Podsumowanie: Bezchmurnie
Visibility: greater than 10 km
2019/09/21 17:50 LIBD 211750Z VRB01KT CAVOK 17/11 Q1022
 
LIBH - Marina Di Ginosa, Italy
Distance from station: Pd 53km
Aktualizacja: 21/09/2019 19:55
Bezchmurnie
Bezchmurnie
 Wiatr z PnPnZd
Wiatr: PnPnZd 7 km/h
Temperatura: 20°C
Punkt Rosy: 14°C
Wilgotność: 69%
Ciśnienie: 1020 hPa
Podsumowanie: Bezchmurnie
Visibility: greater than 10 km
2019/09/21 17:55 LIBH 211755Z 34004KT CAVOK 20/14 Q1020 RMK FEW FEW200 QUK / QUL / VIS MAR /M VIS MIN 9999
LIBG - Grottaglie(Civ/A, Italy
Distance from station: PdWs 61km
Aktualizacja: 21/09/2019 19:50
Bezchmurnie
Bezchmurnie
 Wiatr z Ws
Wiatr: Ws 6 km/h
Temperatura: 19°C
Punkt Rosy: 14°C
Wilgotność: 73%
Ciśnienie: 1021 hPa
Podsumowanie: Bezchmurnie
Visibility: greater than 10 km
2019/09/21 17:50 LIBG 211750Z 08003KT 050V110 CAVOK 19/14 Q1021
 
LIBR - Brindisi/Casale, Italy
Distance from station: WsPdWs 96km
Aktualizacja: 21/09/2019 19:50
Bezchmurnie
Bezchmurnie
 Wiatr z Pn
Wiatr: Pn 11 km/h
Temperatura: 21°C
Punkt Rosy: 12°C
Wilgotność: 57%
Ciśnienie: 1022 hPa
Podsumowanie: Bezchmurnie
Visibility: greater than 10 km
2019/09/21 17:50 LIBR 211750Z 01006KT CAVOK 21/12 Q1022
LIBA - Amendola (it-Afb, Italy
Distance from station: PnZd 118km
Aktualizacja: 21/09/2019 19:55
Bezchmurnie
Bezchmurnie
 Wiatr z Ws
Wiatr: Ws 7 km/h
Temperatura: 20°C
Punkt Rosy: 14°C
Wilgotność: 69%
Ciśnienie: 1021 hPa
Podsumowanie: Bezchmurnie
Visibility: greater than 10 km
2019/09/21 17:55 LIBA 211755Z 10004KT CAVOK 20/14 Q1021 RMK SKC VIS MIN 9999 WIND THR11 10005KT WIND THR29 /////KT BLU
 
LIBF - Foggia/Gino Lisa, Italy
Distance from station: ZdPnZd 126km
Aktualizacja: 21/09/2019 17:50
NOT Current
Bezchmurnie
Bezchmurnie
 Wiatr z PnPnZd
Wiatr: PnPnZd 11 km/h
Temperatura: 23°C
Punkt Rosy: 11°C
Wilgotność: 47%
Ciśnienie: 1022 hPa
Podsumowanie: Bezchmurnie
Visibility: greater than 10 km
2019/09/21 15:50 LIBF 211550Z 02006KT CAVOK 23/11 Q1022
LIBN - Lecce (it-Afb), Italy
Distance from station: PdWs 132km
Aktualizacja: 21/09/2019 19:55
Bezchmurnie
Bezchmurnie
 Wiatr z PnPnZd
Wiatr: PnPnZd 7 km/h
Temperatura: 18°C
Punkt Rosy: 11°C
Wilgotność: 64%
Ciśnienie: 1022 hPa
Podsumowanie: Bezchmurnie
Visibility: greater than 10 km
2019/09/21 17:55 LIBN 211755Z 02004KT CAVOK 18/11 Q1022 RMK SKC VIS MIN 9999 WIND THR14 03002KT WIND THR32 02003KT BLU